Time,TemperatureF,DewpointF,PressureIn,WindDirection,WindDirectionDegrees,WindSpeedMPH,WindSpeedGustMPH,Humidity,HourlyPrecipIn,Conditions,Clouds,dailyrainin,SoftwareType,DateUTC
2014-11-22 00:01:00,23.8,1.3,30.51,SW,225,2.0,9.0,37,0.00,,,0.00,Wunderground v.1.15,2014-11-22 05:01:00,
2014-11-22 00:06:00,23.9,1.4,30.51,SW,226,1.0,9.0,37,0.00,,,0.00,Wunderground v.1.15,2014-11-22 05:06:00,
2014-11-22 00:11:00,23.8,1.3,30.51,SW,226,1.0,9.0,37,0.00,,,0.00,Wunderground v.1.15,2014-11-22 05:11:00,
2014-11-22 00:17:00,24.2,0.4,30.51,SSW,194,2.0,9.0,35,0.00,,,0.00,Wunderground v.1.15,2014-11-22 05:17:00,
2014-11-22 00:22:00,24.3,1.1,30.50,SW,235,2.0,9.0,36,0.00,,,0.00,Wunderground v.1.15,2014-11-22 05:22:00,
2014-11-22 00:27:00,24.3,0.5,30.50,WSW,240,2.0,9.0,35,0.00,,,0.00,Wunderground v.1.15,2014-11-22 05:27:00,
2014-11-22 00:32:00,24.6,0.2,30.50,SW,219,2.0,9.0,34,0.00,,,0.00,Wunderground v.1.15,2014-11-22 05:32:00,
2014-11-22 00:37:00,24.6,0.2,30.50,SW,221,2.0,9.0,34,0.00,,,0.00,Wunderground v.1.15,2014-11-22 05:37:00,
2014-11-22 00:43:00,24.7,-0.4,30.50,SW,231,2.0,9.0,33,0.00,,,0.00,Wunderground v.1.15,2014-11-22 05:43:00,
2014-11-22 00:48:00,24.6,0.2,30.50,SW,229,2.0,9.0,34,0.00,,,0.00,Wunderground v.1.15,2014-11-22 05:48:00,
2014-11-22 00:53:00,24.6,-0.5,30.50,WSW,240,2.0,9.0,33,0.00,,,0.00,Wunderground v.1.15,2014-11-22 05:53:00,
2014-11-22 00:58:00,25.4,-4.8,30.50,SW,226,2.0,9.0,26,0.00,,,0.00,Wunderground v.1.15,2014-11-22 05:58:00,
2014-11-22 01:03:00,26.1,-4.2,30.50,SW,233,3.0,9.0,26,0.00,,,0.00,Wunderground v.1.15,2014-11-22 06:03:00,
2014-11-22 01:09:00,26.2,-4.1,30.50,WSW,253,4.0,9.0,26,0.00,,,0.00,Wunderground v.1.15,2014-11-22 06:09:00,
2014-11-22 01:14:00,26.3,-4.0,30.50,SW,224,3.0,9.0,26,0.00,,,0.00,Wunderground v.1.15,2014-11-22 06:14:00,
2014-11-22 01:19:00,26.3,-4.0,30.50,SW,219,2.0,9.0,26,0.00,,,0.00,Wunderground v.1.15,2014-11-22 06:19:00,
2014-11-22 01:24:00,26.2,-3.3,30.50,SW,230,3.0,9.0,27,0.00,,,0.00,Wunderground v.1.15,2014-11-22 06:24:00,
2014-11-22 01:29:00,25.6,-1.6,30.50,SW,219,4.0,9.0,30,0.00,,,0.00,Wunderground v.1.15,2014-11-22 06:29:00,
2014-11-22 01:35:00,25.6,-3.8,30.50,SW,236,3.0,3.0,27,0.00,,,0.00,Wunderground v.1.15,2014-11-22 06:35:00,
2014-11-22 01:40:00,25.7,-3.7,30.50,SW,230,3.0,9.0,27,0.00,,,0.00,Wunderground v.1.15,2014-11-22 06:40:00,
2014-11-22 01:45:00,25.6,-3.1,30.50,SW,225,3.0,9.0,28,0.00,,,0.00,Wunderground v.1.15,2014-11-22 06:45:00,
2014-11-22 01:50:00,25.7,-3.7,30.50,SW,224,4.0,9.0,27,0.00,,,0.00,Wunderground v.1.15,2014-11-22 06:50:00,
2014-11-22 01:55:00,25.9,-3.6,30.50,WSW,255,4.0,4.0,27,0.00,,,0.00,Wunderground v.1.15,2014-11-22 06:55:00,
2014-11-22 02:00:00,26.2,-4.9,30.49,SW,226,4.0,9.0,25,0.00,,,0.00,Wunderground v.1.15,2014-11-22 07:00:00,
2014-11-22 02:06:00,26.7,-4.5,30.49,WSW,258,5.0,9.0,25,0.00,,,0.00,Wunderground v.1.15,2014-11-22 07:06:00,
2014-11-22 02:11:00,27.0,-5.1,30.49,SSW,203,5.0,9.0,24,0.00,,,0.00,Wunderground v.1.15,2014-11-22 07:11:00,
2014-11-22 02:16:00,27.5,-5.5,30.49,SW,232,6.0,9.0,23,0.00,,,0.00,Wunderground v.1.15,2014-11-22 07:16:00,
2014-11-22 02:21:00,27.8,-3.5,30.49,WNW,284,6.0,13.0,25,0.00,,,0.00,Wunderground v.1.15,2014-11-22 07:21:00,
2014-11-22 02:26:00,28.1,-2.4,30.50,SW,219,7.0,9.0,26,0.00,,,0.00,Wunderground v.1.15,2014-11-22 07:26:00,
2014-11-22 02:32:00,28.3,-2.3,30.50,West,276,7.0,9.0,26,0.00,,,0.00,Wunderground v.1.15,2014-11-22 07:32:00,
2014-11-22 02:37:00,28.6,-1.2,30.50,WSW,239,6.0,13.0,27,0.00,,,0.00,Wunderground v.1.15,2014-11-22 07:37:00,
2014-11-22 02:42:00,29.2,-2.3,30.50,ESE,115,7.0,13.0,25,0.00,,,0.00,Wunderground v.1.15,2014-11-22 07:42:00,
2014-11-22 02:47:00,29.8,-3.6,30.50,West,278,6.0,9.0,23,0.00,,,0.00,Wunderground v.1.15,2014-11-22 07:47:00,
2014-11-22 02:52:00,30.2,-3.2,30.50,SW,226,7.0,10.0,23,0.00,,,0.00,Wunderground v.1.15,2014-11-22 07:52:00,
2014-11-22 02:58:00,30.3,-3.1,30.50,WSW,248,7.0,13.0,23,0.00,,,0.00,Wunderground v.1.15,2014-11-22 07:58:00,
2014-11-22 03:03:00,30.4,-5.0,30.50,WSW,244,5.0,13.0,21,0.00,,,0.00,Wunderground v.1.15,2014-11-22 08:03:00,
2014-11-22 03:08:00,30.4,-6.0,30.50,WSW,252,5.0,9.0,20,0.00,,,0.00,Wunderground v.1.15,2014-11-22 08:08:00,
2014-11-22 03:13:00,30.8,-6.7,30.49,WSW,238,5.0,9.0,19,0.00,,,0.00,Wunderground v.1.15,2014-11-22 08:13:00,
2014-11-22 03:18:00,31.1,-7.6,30.49,WSW,237,5.0,9.0,18,0.00,,,0.00,Wunderground v.1.15,2014-11-22 08:18:00,
2014-11-22 03:24:00,31.4,-8.5,30.49,SW,217,5.0,9.0,17,0.00,,,0.00,Wunderground v.1.15,2014-11-22 08:24:00,
2014-11-22 03:29:00,32.0,-10.5,30.49,SW,233,6.0,9.0,15,0.00,,,0.00,Wunderground v.1.15,2014-11-22 08:29:00,
2014-11-22 03:34:00,32.5,-10.1,30.49,SW,227,6.0,10.0,15,0.00,,,0.00,Wunderground v.1.15,2014-11-22 08:34:00,
2014-11-22 03:39:00,32.8,-9.9,30.49,West,262,6.0,9.0,15,0.00,,,0.00,Wunderground v.1.15,2014-11-22 08:39:00,
2014-11-22 03:44:00,32.9,-8.5,30.49,NNW,330,6.0,9.0,16,0.00,,,0.00,Wunderground v.1.15,2014-11-22 08:44:00,
2014-11-22 03:50:00,31.5,-4.0,30.49,West,268,6.0,10.0,21,0.00,,,0.00,Wunderground v.1.15,2014-11-22 08:50:00,
2014-11-22 03:55:00,31.0,-3.5,30.49,West,274,6.0,9.0,22,0.00,,,0.00,Wunderground v.1.15,2014-11-22 08:55:00,
2014-11-22 04:00:00,31.5,-5.0,30.49,West,277,5.0,9.0,20,0.00,,,0.00,Wunderground v.1.15,2014-11-22 09:00:00,